createdAt,value
2022-07-27T00:00:09.256Z,18.10
2022-07-27T00:01:09.292Z,18.04
2022-07-27T00:02:09.193Z,17.97
2022-07-27T00:03:09.186Z,18.09
2022-07-27T00:04:09.235Z,18.07
2022-07-27T00:05:09.188Z,18.03
2022-07-27T00:06:09.156Z,18.00
2022-07-27T00:07:09.167Z,18.01
2022-07-27T00:08:09.131Z,17.97
2022-07-27T00:09:09.684Z,18.00
2022-07-27T00:10:09.118Z,18.00
2022-07-27T00:11:09.095Z,17.97
2022-07-27T00:12:09.083Z,17.89
2022-07-27T00:13:09.094Z,17.97
2022-07-27T00:14:09.114Z,18.03
2022-07-27T00:15:09.061Z,17.95
2022-07-27T00:16:09.135Z,18.03
2022-07-27T00:17:09.030Z,18.01
2022-07-27T00:18:09.012Z,17.89
2022-07-27T00:19:09.793Z,17.97
2022-07-27T00:20:09.025Z,17.93
2022-07-27T00:21:08.992Z,17.91
2022-07-27T00:22:08.982Z,18.01
2022-07-27T00:23:08.960Z,17.88
2022-07-27T00:24:08.949Z,17.94
2022-07-27T00:25:08.958Z,18.03
2022-07-27T00:26:08.929Z,18.01
2022-07-27T00:27:08.930Z,17.95
2022-07-27T00:28:08.915Z,18.04
2022-07-27T00:29:09.364Z,18.01
2022-07-27T00:30:08.891Z,18.00
2022-07-27T00:31:08.960Z,17.97
2022-07-27T00:32:12.601Z,18.03
2022-07-27T00:33:08.843Z,17.93
2022-07-27T00:34:08.856Z,18.03
2022-07-27T00:35:08.837Z,17.95
2022-07-27T00:36:08.821Z,17.91
2022-07-27T00:37:08.799Z,17.83
2022-07-27T00:38:08.793Z,17.93
2022-07-27T00:39:09.125Z,17.85
2022-07-27T00:40:08.799Z,17.93
2022-07-27T00:41:08.762Z,17.82
2022-07-27T00:42:08.826Z,17.76
2022-07-27T00:43:08.772Z,17.82
2022-07-27T00:44:08.725Z,17.80
2022-07-27T00:45:08.742Z,17.76
2022-07-27T00:46:08.706Z,17.76
2022-07-27T00:47:08.801Z,17.67
2022-07-27T00:48:08.704Z,17.65
2022-07-27T00:49:09.201Z,17.57
2022-07-27T00:50:08.671Z,17.64
2022-07-27T00:51:08.638Z,17.49
2022-07-27T00:52:08.632Z,17.46
2022-07-27T00:53:08.644Z,17.57
2022-07-27T00:54:08.605Z,17.53
2022-07-27T00:55:08.609Z,17.44
2022-07-27T00:56:08.585Z,17.35
2022-07-27T00:57:08.575Z,17.39
2022-07-27T00:58:08.568Z,17.38
2022-07-27T00:59:09.102Z,17.38
2022-07-27T01:00:08.555Z,17.35
2022-07-27T01:01:08.534Z,17.30
2022-07-27T01:02:11.289Z,17.27
2022-07-27T01:03:09.510Z,17.30
2022-07-27T01:04:08.499Z,17.35
2022-07-27T01:05:08.509Z,17.26
2022-07-27T01:06:08.476Z,17.23
2022-07-27T01:07:08.490Z,17.17
2022-07-27T01:08:08.453Z,17.14
2022-07-27T01:09:08.791Z,17.17
2022-07-27T01:10:08.444Z,17.11
2022-07-27T01:11:08.417Z,17.11
2022-07-27T01:12:08.397Z,17.08
2022-07-27T01:13:12.610Z,17.06
2022-07-27T01:14:08.401Z,17.06
2022-07-27T01:15:08.378Z,17.01
2022-07-27T01:16:08.404Z,16.98
2022-07-27T01:17:08.343Z,16.93
2022-07-27T01:18:08.325Z,16.96
2022-07-27T01:19:08.470Z,17.05
2022-07-27T01:20:08.332Z,16.98
2022-07-27T01:21:08.375Z,16.94
2022-07-27T01:22:08.311Z,16.91
2022-07-27T01:23:08.305Z,16.91
2022-07-27T01:24:08.373Z,16.90
2022-07-27T01:25:08.263Z,16.90
2022-07-27T01:26:08.236Z,16.87
2022-07-27T01:27:08.248Z,16.86
2022-07-27T01:28:08.228Z,16.86
2022-07-27T01:29:08.397Z,16.83
2022-07-27T01:30:08.221Z,16.84
2022-07-27T01:31:08.278Z,16.76
2022-07-27T01:32:08.240Z,16.80
2022-07-27T01:33:08.169Z,16.74
2022-07-27T01:34:08.145Z,16.72
2022-07-27T01:35:08.160Z,16.71
2022-07-27T01:36:08.137Z,16.75
2022-07-27T01:37:08.125Z,16.71
2022-07-27T01:38:08.105Z,16.68
2022-07-27T01:39:08.318Z,16.74
2022-07-27T01:40:08.073Z,16.72
2022-07-27T01:41:08.089Z,16.69
2022-07-27T01:42:08.056Z,16.68
2022-07-27T01:43:08.044Z,16.65
2022-07-27T01:44:08.047Z,16.64
2022-07-27T01:45:08.020Z,16.57
2022-07-27T01:46:08.071Z,16.62
2022-07-27T01:47:13.908Z,16.57
2022-07-27T01:48:08.979Z,16.51
2022-07-27T01:49:08.172Z,16.62
2022-07-27T01:50:07.966Z,16.53
2022-07-27T01:51:07.967Z,16.54
2022-07-27T01:52:07.939Z,16.53
2022-07-27T01:53:09.592Z,16.47
2022-07-27T01:54:07.914Z,16.59
2022-07-27T01:55:07.909Z,16.50
2022-07-27T01:56:07.910Z,16.49
2022-07-27T01:57:07.882Z,16.46
2022-07-27T01:58:07.870Z,16.49
2022-07-27T01:59:08.009Z,16.50
2022-07-27T02:00:08.849Z,16.54
2022-07-27T02:01:08.024Z,16.53
2022-07-27T02:02:07.960Z,16.41
2022-07-27T02:03:07.812Z,16.41
2022-07-27T02:04:07.800Z,16.44
2022-07-27T02:05:07.938Z,16.39
2022-07-27T02:06:07.795Z,16.43
2022-07-27T02:07:07.767Z,16.44
2022-07-27T02:08:07.758Z,16.35
2022-07-27T02:09:07.879Z,16.41
2022-07-27T02:10:07.736Z,16.35
2022-07-27T02:11:07.772Z,16.36
2022-07-27T02:12:07.709Z,16.34
2022-07-27T02:13:21.941Z,16.29
2022-07-27T02:14:08.701Z,16.29
2022-07-27T02:15:07.677Z,16.26
2022-07-27T02:16:09.694Z,16.26
2022-07-27T02:17:08.674Z,16.28
2022-07-27T02:18:26.814Z,16.26
2022-07-27T02:19:08.894Z,16.15
2022-07-27T02:20:07.622Z,16.17
2022-07-27T02:21:07.631Z,16.13
2022-07-27T02:22:07.599Z,16.17
2022-07-27T02:23:07.617Z,16.15
2022-07-27T02:24:07.573Z,16.10
2022-07-27T02:25:07.556Z,16.20
2022-07-27T02:26:07.570Z,16.08
2022-07-27T02:27:07.538Z,16.13
2022-07-27T02:28:07.523Z,16.06
2022-07-27T02:29:07.553Z,16.05
2022-07-27T02:30:07.504Z,16.06
2022-07-27T02:31:07.518Z,16.02
2022-07-27T02:32:07.484Z,16.02
2022-07-27T02:33:07.528Z,15.98
2022-07-27T02:34:07.465Z,16.02
2022-07-27T02:35:19.518Z,15.97
2022-07-27T02:36:08.452Z,15.97
2022-07-27T02:37:07.436Z,15.91
2022-07-27T02:38:07.424Z,15.92
2022-07-27T02:39:07.403Z,15.91
2022-07-27T02:40:07.414Z,15.95
2022-07-27T02:41:07.392Z,15.91
2022-07-27T02:42:07.377Z,15.91
2022-07-27T02:43:07.361Z,15.87
2022-07-27T02:44:07.350Z,15.91
2022-07-27T02:45:07.344Z,15.88
2022-07-27T02:46:07.438Z,15.85
2022-07-27T02:47:07.398Z,15.83
2022-07-27T02:48:08.515Z,15.92
2022-07-27T02:49:07.383Z,15.87
2022-07-27T02:50:07.293Z,15.87
2022-07-27T02:51:07.286Z,15.77
2022-07-27T02:52:07.271Z,15.70
2022-07-27T02:53:07.290Z,15.77
2022-07-27T02:54:07.239Z,15.69
2022-07-27T02:55:07.221Z,15.75
2022-07-27T02:56:07.239Z,15.77
2022-07-27T02:57:07.197Z,15.73
2022-07-27T02:58:07.189Z,15.70
2022-07-27T02:59:07.171Z,15.76
2022-07-27T03:00:07.170Z,15.69
2022-07-27T03:01:07.255Z,15.72
2022-07-27T03:02:07.138Z,15.70
2022-07-27T03:03:07.130Z,15.65
2022-07-27T03:04:07.220Z,15.68
2022-07-27T03:05:07.105Z,15.69
2022-07-27T03:06:07.120Z,15.72
2022-07-27T03:07:07.094Z,15.65
2022-07-27T03:08:07.094Z,15.68
2022-07-27T03:09:07.076Z,15.61
2022-07-27T03:10:07.050Z,15.65
2022-07-27T03:11:07.054Z,15.60
2022-07-27T03:12:07.024Z,15.60
2022-07-27T03:13:07.011Z,15.60
2022-07-27T03:14:07.010Z,15.61
2022-07-27T03:15:07.003Z,15.65
2022-07-27T03:16:07.048Z,15.52
2022-07-27T03:17:06.967Z,15.51
2022-07-27T03:18:06.963Z,15.48
2022-07-27T03:19:06.944Z,15.51
2022-07-27T03:20:08.063Z,15.51
2022-07-27T03:21:06.967Z,15.52
2022-07-27T03:22:06.932Z,15.42
2022-07-27T03:23:06.936Z,15.40
2022-07-27T03:24:06.891Z,15.44
2022-07-27T03:25:06.884Z,15.40
2022-07-27T03:26:06.885Z,15.50
2022-07-27T03:27:06.856Z,15.46
2022-07-27T03:28:06.845Z,15.43
2022-07-27T03:29:06.855Z,15.43
2022-07-27T03:30:06.823Z,15.43
2022-07-27T03:31:06.886Z,15.44
2022-07-27T03:32:06.796Z,15.44
2022-07-27T03:33:06.797Z,15.44
2022-07-27T03:34:06.774Z,15.43
2022-07-27T03:35:06.819Z,15.40
2022-07-27T03:36:06.770Z,15.44
2022-07-27T03:37:06.742Z,15.42
2022-07-27T03:38:06.747Z,15.43
2022-07-27T03:39:06.737Z,15.46
2022-07-27T03:40:06.731Z,15.42
2022-07-27T03:41:06.749Z,15.40
2022-07-27T03:42:06.685Z,15.39
2022-07-27T03:43:06.676Z,15.40
2022-07-27T03:44:06.668Z,15.42
2022-07-27T03:45:06.656Z,15.35
2022-07-27T03:46:06.713Z,15.43
2022-07-27T03:47:06.642Z,15.36
2022-07-27T03:48:06.626Z,15.42
2022-07-27T03:49:13.971Z,15.40
2022-07-27T03:50:07.595Z,15.40
2022-07-27T03:51:06.600Z,15.40
2022-07-27T03:52:06.574Z,15.44
2022-07-27T03:53:06.579Z,15.39
2022-07-27T03:54:06.557Z,15.39
2022-07-27T03:55:06.536Z,15.40
2022-07-27T03:56:06.543Z,15.43
2022-07-27T03:57:06.517Z,15.44
2022-07-27T03:58:06.512Z,15.43
2022-07-27T03:59:06.518Z,15.42
2022-07-27T04:00:06.487Z,15.42
2022-07-27T04:01:06.542Z,15.42
2022-07-27T04:02:06.501Z,15.39
2022-07-27T04:03:06.449Z,15.48
2022-07-27T04:04:06.436Z,15.42
2022-07-27T04:05:06.433Z,15.44
2022-07-27T04:06:06.439Z,15.44
2022-07-27T04:07:06.414Z,15.44
2022-07-27T04:08:06.406Z,15.44
2022-07-27T04:09:08.099Z,15.48
2022-07-27T04:10:06.375Z,15.46
2022-07-27T04:11:06.373Z,15.48
2022-07-27T04:12:06.378Z,15.51
2022-07-27T04:13:06.352Z,15.46
2022-07-27T04:14:06.327Z,15.43
2022-07-27T04:15:06.320Z,15.52
2022-07-27T04:16:06.326Z,15.50
2022-07-27T04:17:06.395Z,15.54
2022-07-27T04:18:06.312Z,15.50
2022-07-27T04:19:06.265Z,15.54
2022-07-27T04:20:06.295Z,15.50
2022-07-27T04:21:06.275Z,15.58
2022-07-27T04:22:06.233Z,15.48
2022-07-27T04:23:06.223Z,15.52
2022-07-27T04:24:06.241Z,15.46
2022-07-27T04:25:06.200Z,15.44
2022-07-27T04:26:06.217Z,15.42
2022-07-27T04:27:06.181Z,15.46
2022-07-27T04:28:06.164Z,15.43
2022-07-27T04:29:06.162Z,15.40
2022-07-27T04:30:09.548Z,15.43
2022-07-27T04:31:06.208Z,15.40
2022-07-27T04:32:06.148Z,15.30
2022-07-27T04:33:06.237Z,15.40
2022-07-27T04:34:06.132Z,15.32
2022-07-27T04:35:06.093Z,15.35
2022-07-27T04:36:06.133Z,15.40
2022-07-27T04:37:06.077Z,15.37
2022-07-27T04:38:06.057Z,15.39
2022-07-27T04:39:06.070Z,15.32
2022-07-27T04:40:06.052Z,15.33
2022-07-27T04:41:06.045Z,15.33
2022-07-27T04:42:06.005Z,15.28
2022-07-27T04:43:05.996Z,15.30
2022-07-27T04:44:05.994Z,15.19
2022-07-27T04:45:05.978Z,15.36
2022-07-27T04:46:06.505Z,15.36
2022-07-27T04:47:05.976Z,15.30
2022-07-27T04:48:05.941Z,15.33
2022-07-27T04:49:06.005Z,15.33
2022-07-27T04:50:05.930Z,15.30
2022-07-27T04:51:06.074Z,15.37
2022-07-27T04:52:05.922Z,15.30
2022-07-27T04:53:05.899Z,15.28
2022-07-27T04:54:05.910Z,15.33
2022-07-27T04:55:05.876Z,15.30
2022-07-27T04:56:05.880Z,15.39
2022-07-27T04:57:05.880Z,15.32
2022-07-27T04:58:05.835Z,15.33
2022-07-27T04:59:05.820Z,15.39
2022-07-27T05:00:05.856Z,15.35
2022-07-27T05:01:05.873Z,15.37
2022-07-27T05:02:05.798Z,15.43
2022-07-27T05:03:05.783Z,15.40
2022-07-27T05:04:05.882Z,15.44
2022-07-27T05:05:05.773Z,15.43
2022-07-27T05:06:05.752Z,15.44
2022-07-27T05:07:05.738Z,15.48
2022-07-27T05:08:05.718Z,15.51
2022-07-27T05:09:05.713Z,15.52
2022-07-27T05:10:05.701Z,15.62
2022-07-27T05:11:05.702Z,15.64
2022-07-27T05:12:05.772Z,15.65
2022-07-27T05:13:07.417Z,15.64
2022-07-27T05:14:05.656Z,15.61
2022-07-27T05:15:05.635Z,15.64
2022-07-27T05:16:05.867Z,15.75
2022-07-27T05:17:05.637Z,15.77
2022-07-27T05:18:05.612Z,15.72
2022-07-27T05:19:05.624Z,15.79
2022-07-27T05:20:05.585Z,15.83
2022-07-27T05:21:05.586Z,15.82
2022-07-27T05:22:05.579Z,15.94
2022-07-27T05:23:05.578Z,15.83
2022-07-27T05:24:05.538Z,15.91
2022-07-27T05:25:05.526Z,15.91
2022-07-27T05:26:05.586Z,15.91
2022-07-27T05:27:05.515Z,15.91
2022-07-27T05:28:05.494Z,15.91
2022-07-27T05:29:05.477Z,15.95
2022-07-27T05:30:05.467Z,16.00
2022-07-27T05:31:05.461Z,15.98
2022-07-27T05:32:05.528Z,15.95
2022-07-27T05:33:05.449Z,15.97
2022-07-27T05:34:05.420Z,15.97
2022-07-27T05:35:05.412Z,15.97
2022-07-27T05:36:07.802Z,16.08
2022-07-27T05:37:05.388Z,16.06
2022-07-27T05:38:05.380Z,16.05
2022-07-27T05:39:08.132Z,15.97
2022-07-27T05:40:06.355Z,15.95
2022-07-27T05:41:05.369Z,16.00
2022-07-27T05:42:05.333Z,16.01
2022-07-27T05:43:05.322Z,16.02
2022-07-27T05:44:05.316Z,15.98
2022-07-27T05:45:05.306Z,16.05
2022-07-27T05:46:05.357Z,16.10
2022-07-27T05:47:06.212Z,16.02
2022-07-27T05:48:05.278Z,16.00
2022-07-27T05:49:05.320Z,16.01
2022-07-27T05:50:05.245Z,16.02
2022-07-27T05:51:05.248Z,16.02
2022-07-27T05:52:05.218Z,16.08
2022-07-27T05:53:05.207Z,16.05
2022-07-27T05:54:05.195Z,16.02
2022-07-27T05:55:05.186Z,16.09
2022-07-27T05:56:05.188Z,16.08
2022-07-27T05:57:05.168Z,16.20
2022-07-27T05:58:05.177Z,16.13
2022-07-27T05:59:07.396Z,16.21
2022-07-27T06:00:05.137Z,16.06
2022-07-27T06:01:05.337Z,16.08
2022-07-27T06:02:05.108Z,15.95
2022-07-27T06:03:05.119Z,15.92
2022-07-27T06:04:05.161Z,15.90
2022-07-27T06:05:05.077Z,15.72
2022-07-27T06:06:05.072Z,15.75
2022-07-27T06:07:05.056Z,15.64
2022-07-27T06:08:05.040Z,15.58
2022-07-27T06:09:05.030Z,15.68
2022-07-27T06:10:05.021Z,15.58
2022-07-27T06:11:05.028Z,15.57
2022-07-27T06:12:04.992Z,15.52
2022-07-27T06:13:04.985Z,15.44
2022-07-27T06:14:04.999Z,15.43
2022-07-27T06:15:04.967Z,15.40
2022-07-27T06:16:05.018Z,15.39
2022-07-27T06:17:04.963Z,15.42
2022-07-27T06:18:04.937Z,15.27
2022-07-27T06:19:04.914Z,15.24
2022-07-27T06:20:04.904Z,15.37
2022-07-27T06:21:04.899Z,15.35
2022-07-27T06:22:04.910Z,15.35
2022-07-27T06:23:07.814Z,15.27
2022-07-27T06:24:04.859Z,15.39
2022-07-27T06:25:04.847Z,15.33
2022-07-27T06:26:04.844Z,15.28
2022-07-27T06:27:04.840Z,15.27
2022-07-27T06:28:04.852Z,15.28
2022-07-27T06:29:10.396Z,15.32
2022-07-27T06:30:05.796Z,15.18
2022-07-27T06:31:04.808Z,15.21
2022-07-27T06:32:04.880Z,15.12
2022-07-27T06:33:04.939Z,15.15
2022-07-27T06:34:08.193Z,15.07
2022-07-27T06:35:05.741Z,15.07
2022-07-27T06:36:04.720Z,15.00
2022-07-27T06:37:04.717Z,14.97
2022-07-27T06:38:04.696Z,14.97
2022-07-27T06:39:04.680Z,14.95
2022-07-27T06:40:04.676Z,14.95
2022-07-27T06:41:04.659Z,14.95
2022-07-27T06:42:04.665Z,15.00
2022-07-27T06:43:04.635Z,15.06
2022-07-27T06:44:04.631Z,15.07
2022-07-27T06:45:04.614Z,15.12
2022-07-27T06:46:04.619Z,15.18
2022-07-27T06:47:04.684Z,15.19
2022-07-27T06:48:04.588Z,15.22
2022-07-27T06:49:04.635Z,15.22
2022-07-27T06:50:04.559Z,15.24
2022-07-27T06:51:04.576Z,15.30
2022-07-27T06:52:04.544Z,15.33
2022-07-27T06:53:04.526Z,15.30
2022-07-27T06:54:04.512Z,15.43
2022-07-27T06:55:04.502Z,15.48
2022-07-27T06:56:04.582Z,15.43
2022-07-27T06:57:04.474Z,15.60
2022-07-27T06:58:04.465Z,15.64
2022-07-27T06:59:04.456Z,15.68
2022-07-27T07:00:04.457Z,15.69
2022-07-27T07:01:04.507Z,15.77
2022-07-27T07:02:04.430Z,15.69
2022-07-27T07:03:04.424Z,15.85
2022-07-27T07:04:04.476Z,15.79
2022-07-27T07:05:04.393Z,15.90
2022-07-27T07:06:04.408Z,15.90
2022-07-27T07:07:07.272Z,16.00
2022-07-27T07:08:04.358Z,16.05
2022-07-27T07:09:04.343Z,16.08
2022-07-27T07:10:04.335Z,16.10
2022-07-27T07:11:04.343Z,16.15
2022-07-27T07:12:04.309Z,16.16
2022-07-27T07:13:04.305Z,16.26
2022-07-27T07:14:04.285Z,16.38
2022-07-27T07:15:04.275Z,16.35
2022-07-27T07:16:04.345Z,16.43
2022-07-27T07:17:04.247Z,16.51
2022-07-27T07:18:04.248Z,16.56
2022-07-27T07:19:04.235Z,16.50
2022-07-27T07:20:04.218Z,16.61
2022-07-27T07:21:04.217Z,16.65
2022-07-27T07:22:04.200Z,16.65
2022-07-27T07:23:04.180Z,16.68
2022-07-27T07:24:04.181Z,16.76
2022-07-27T07:25:04.172Z,16.80
2022-07-27T07:26:04.165Z,16.79
2022-07-27T07:27:04.143Z,16.90
2022-07-27T07:28:04.138Z,16.91
2022-07-27T07:29:04.129Z,17.05
2022-07-27T07:30:04.111Z,16.96
2022-07-27T07:31:04.151Z,17.06
2022-07-27T07:32:04.088Z,17.12
2022-07-27T07:33:04.078Z,17.12
2022-07-27T07:34:04.062Z,17.17
2022-07-27T07:35:04.055Z,17.22
2022-07-27T07:36:12.633Z,17.30
2022-07-27T07:37:05.020Z,17.33
2022-07-27T07:38:04.019Z,17.33
2022-07-27T07:39:04.013Z,17.33
2022-07-27T07:40:25.365Z,17.51
2022-07-27T07:41:04.993Z,17.44
2022-07-27T07:42:03.969Z,17.51
2022-07-27T07:43:03.958Z,17.53
2022-07-27T07:44:03.949Z,17.70
2022-07-27T07:45:03.954Z,17.71
2022-07-27T07:46:04.014Z,17.70
2022-07-27T07:47:04.024Z,17.82
2022-07-27T07:48:03.917Z,17.83
2022-07-27T07:49:03.967Z,17.97
2022-07-27T07:50:03.877Z,18.07
2022-07-27T07:51:03.866Z,18.13
2022-07-27T07:52:03.882Z,18.16
2022-07-27T07:53:03.847Z,18.04
2022-07-27T07:54:03.831Z,18.18
2022-07-27T07:55:03.826Z,18.25
2022-07-27T07:56:03.819Z,18.16
2022-07-27T07:57:03.855Z,18.20
2022-07-27T07:58:03.793Z,18.28
2022-07-27T07:59:03.777Z,18.31
2022-07-27T08:00:03.776Z,18.28
2022-07-27T08:01:03.751Z,18.30
2022-07-27T08:02:03.834Z,18.28
2022-07-27T08:03:03.891Z,18.30
2022-07-27T08:04:03.722Z,18.25
2022-07-27T08:05:03.705Z,18.28
2022-07-27T08:06:03.704Z,18.28
2022-07-27T08:07:03.696Z,18.22
2022-07-27T08:08:03.677Z,18.33
2022-07-27T08:09:03.663Z,18.25
2022-07-27T08:10:03.680Z,18.34
2022-07-27T08:11:03.641Z,18.37
2022-07-27T08:12:03.643Z,18.31
2022-07-27T08:13:03.614Z,18.40
2022-07-27T08:14:03.601Z,18.43
2022-07-27T08:15:03.595Z,18.30
2022-07-27T08:16:03.710Z,18.33
2022-07-27T08:17:03.585Z,18.28
2022-07-27T08:18:03.550Z,18.22
2022-07-27T08:19:03.558Z,18.15
2022-07-27T08:20:03.531Z,18.15
2022-07-27T08:21:03.549Z,18.20
2022-07-27T08:22:03.517Z,18.20
2022-07-27T08:23:03.496Z,18.30
2022-07-27T08:24:03.516Z,18.31
2022-07-27T08:25:03.469Z,18.37
2022-07-27T08:26:07.734Z,18.41
2022-07-27T08:27:03.458Z,18.49
2022-07-27T08:28:03.440Z,18.49
2022-07-27T08:29:13.106Z,18.50
2022-07-27T08:30:04.421Z,18.53
2022-07-27T08:31:14.042Z,18.59
2022-07-27T08:32:05.957Z,18.58
2022-07-27T08:33:03.386Z,18.52
2022-07-27T08:34:03.373Z,18.53
2022-07-27T08:35:03.358Z,18.56
2022-07-27T08:36:03.366Z,18.53
2022-07-27T08:37:03.337Z,18.50
2022-07-27T08:38:03.335Z,18.53
2022-07-27T08:39:03.324Z,18.59
2022-07-27T08:40:38.755Z,18.62
2022-07-27T08:41:04.317Z,18.74
2022-07-27T08:42:03.296Z,18.78
2022-07-27T08:43:03.284Z,18.99
2022-07-27T08:44:03.263Z,19.09
2022-07-27T08:45:03.255Z,19.18
2022-07-27T08:46:03.393Z,19.26
2022-07-27T08:47:03.364Z,19.26
2022-07-27T08:48:03.231Z,19.16
2022-07-27T08:49:03.293Z,19.14
2022-07-27T08:50:03.206Z,19.07
2022-07-27T08:51:03.196Z,19.09
2022-07-27T08:52:03.168Z,18.98
2022-07-27T08:53:03.167Z,18.92
2022-07-27T08:54:03.165Z,19.00
2022-07-27T08:55:03.141Z,18.86
2022-07-27T08:56:03.150Z,18.85
2022-07-27T08:57:03.120Z,18.85
2022-07-27T08:58:03.879Z,18.88
2022-07-27T08:59:03.094Z,18.95
2022-07-27T09:00:03.087Z,18.95
2022-07-27T09:01:03.095Z,19.09
2022-07-27T09:02:03.685Z,19.59
2022-07-27T09:03:03.193Z,19.99
2022-07-27T09:04:03.043Z,20.31
2022-07-27T09:05:03.031Z,20.59
2022-07-27T09:06:03.039Z,21.00
2022-07-27T09:07:03.006Z,21.59
2022-07-27T09:08:02.999Z,21.73
2022-07-27T09:09:02.993Z,21.76
2022-07-27T09:10:02.982Z,21.70
2022-07-27T09:11:02.979Z,21.57
2022-07-27T09:12:02.949Z,21.47
2022-07-27T09:13:02.947Z,21.30
2022-07-27T09:14:02.928Z,21.20
2022-07-27T09:15:02.939Z,21.08
2022-07-27T09:16:20.056Z,20.93
2022-07-27T09:17:46.818Z,20.84
2022-07-27T09:18:03.952Z,20.96
2022-07-27T09:19:02.867Z,20.87
2022-07-27T09:20:02.858Z,20.77
2022-07-27T09:21:02.865Z,20.67
2022-07-27T09:22:02.848Z,20.52
2022-07-27T09:23:02.824Z,20.48
2022-07-27T09:24:02.810Z,20.34
2022-07-27T09:25:02.889Z,20.28
2022-07-27T09:26:07.865Z,20.25
2022-07-27T09:27:03.891Z,20.50
2022-07-27T09:28:02.781Z,20.52
2022-07-27T09:29:02.753Z,20.60
2022-07-27T09:30:02.760Z,20.60
2022-07-27T09:31:02.797Z,20.50
2022-07-27T09:32:02.733Z,20.41
2022-07-27T09:33:02.713Z,20.37
2022-07-27T09:34:02.763Z,20.43
2022-07-27T09:35:02.685Z,20.28
2022-07-27T09:36:02.671Z,20.17
2022-07-27T09:37:02.681Z,20.22
2022-07-27T09:38:02.670Z,20.17
2022-07-27T09:39:03.227Z,20.25
2022-07-27T09:40:02.642Z,20.48
2022-07-27T09:41:02.641Z,20.48
2022-07-27T09:42:03.220Z,20.50
2022-07-27T09:43:17.376Z,21.05
2022-07-27T09:44:34.625Z,21.72
2022-07-27T09:45:03.574Z,22.40
2022-07-27T09:46:02.570Z,22.93
2022-07-27T09:47:02.562Z,23.61
2022-07-27T09:48:02.566Z,23.98
2022-07-27T09:49:02.595Z,24.07
2022-07-27T09:50:02.522Z,24.18
2022-07-27T09:51:05.514Z,24.40
2022-07-27T09:52:03.742Z,24.69
2022-07-27T09:53:19.699Z,25.50
2022-07-27T09:54:03.478Z,25.95
2022-07-27T09:55:02.465Z,26.30
2022-07-27T09:56:02.455Z,26.50
2022-07-27T09:57:02.465Z,26.63
2022-07-27T09:58:02.428Z,26.56
2022-07-27T09:59:02.419Z,26.10
2022-07-27T10:00:02.413Z,25.63
2022-07-27T10:01:02.396Z,25.28
2022-07-27T10:02:02.457Z,24.91
2022-07-27T10:03:02.380Z,24.55
2022-07-27T10:04:02.413Z,24.17
2022-07-27T10:05:02.506Z,23.86
2022-07-27T10:06:02.343Z,23.52
2022-07-27T10:07:04.576Z,23.25
2022-07-27T10:08:02.316Z,23.07
2022-07-27T10:09:02.304Z,22.83
2022-07-27T10:10:02.312Z,22.59
2022-07-27T10:11:04.090Z,22.44
2022-07-27T10:12:03.288Z,22.28
2022-07-27T10:13:02.262Z,22.14
2022-07-27T10:14:02.273Z,22.08
2022-07-27T10:15:02.240Z,21.93
2022-07-27T10:16:02.326Z,21.82
2022-07-27T10:17:02.233Z,21.67
2022-07-27T10:18:06.941Z,21.74
2022-07-27T10:19:03.191Z,21.66
2022-07-27T10:20:02.186Z,21.52
2022-07-27T10:21:02.168Z,21.54
2022-07-27T10:22:02.161Z,21.48
2022-07-27T10:23:02.166Z,21.52
2022-07-27T10:24:02.137Z,21.51
2022-07-27T10:25:02.145Z,21.50
2022-07-27T10:26:02.118Z,21.47
2022-07-27T10:27:02.109Z,21.50
2022-07-27T10:28:02.112Z,21.36
2022-07-27T10:29:02.085Z,21.43
2022-07-27T10:30:02.086Z,21.36
2022-07-27T10:31:02.201Z,21.32
2022-07-27T10:32:02.047Z,21.32
2022-07-27T10:33:02.059Z,21.32
2022-07-27T10:34:02.025Z,21.21
2022-07-27T10:35:02.017Z,21.20
2022-07-27T10:36:02.004Z,21.17
2022-07-27T10:37:02.001Z,21.11
2022-07-27T10:38:01.990Z,21.15
2022-07-27T10:39:01.964Z,21.20
2022-07-27T10:40:01.980Z,21.30
2022-07-27T10:41:01.945Z,21.22
2022-07-27T10:42:01.935Z,21.24
2022-07-27T10:43:01.939Z,21.36
2022-07-27T10:44:01.913Z,21.32
2022-07-27T10:45:01.898Z,21.36
2022-07-27T10:46:03.058Z,21.32
2022-07-27T10:47:01.872Z,21.33
2022-07-27T10:48:01.891Z,21.20
2022-07-27T10:49:01.875Z,21.26
2022-07-27T10:50:01.842Z,21.29
2022-07-27T10:51:01.835Z,21.37
2022-07-27T10:52:01.831Z,21.40
2022-07-27T10:53:01.843Z,21.45
2022-07-27T10:54:17.038Z,21.42
2022-07-27T10:55:02.782Z,21.51
2022-07-27T10:56:01.797Z,21.58
2022-07-27T10:57:01.771Z,21.73
2022-07-27T10:58:01.790Z,21.95
2022-07-27T10:59:01.758Z,22.20
2022-07-27T11:00:12.397Z,22.20
2022-07-27T11:01:02.788Z,22.35
2022-07-27T11:02:01.898Z,22.40
2022-07-27T11:03:01.716Z,22.36
2022-07-27T11:04:01.757Z,22.33
2022-07-27T11:05:01.681Z,22.30
2022-07-27T11:06:21.938Z,22.22
2022-07-27T11:07:24.077Z,22.19
2022-07-27T11:08:35.393Z,22.03
2022-07-27T11:10:04.448Z,21.81
2022-07-27T11:11:01.616Z,21.69
2022-07-27T11:12:01.626Z,21.58
2022-07-27T11:13:09.923Z,21.43
2022-07-27T11:14:02.572Z,21.43
2022-07-27T11:15:01.593Z,21.33
2022-07-27T11:16:22.895Z,21.15
2022-07-27T11:17:48.617Z,21.10
2022-07-27T11:18:04.933Z,21.08
2022-07-27T11:19:01.728Z,21.06
2022-07-27T11:20:01.503Z,21.00
2022-07-27T11:21:04.592Z,20.99
2022-07-27T11:22:04.461Z,20.96
2022-07-27T11:24:02.477Z,20.99
2022-07-27T11:25:01.610Z,20.99
2022-07-27T11:26:01.440Z,21.02
2022-07-27T11:27:01.429Z,21.03
2022-07-27T11:28:02.416Z,21.18
2022-07-27T11:29:01.428Z,21.27
2022-07-27T11:30:01.394Z,21.29
2022-07-27T11:31:03.666Z,21.40
2022-07-27T11:32:01.429Z,21.47
2022-07-27T11:33:01.359Z,21.59
2022-07-27T11:34:01.378Z,21.67
2022-07-27T11:35:01.345Z,21.74
2022-07-27T11:36:01.335Z,21.77
2022-07-27T11:37:01.323Z,21.76
2022-07-27T11:38:01.321Z,21.63
2022-07-27T11:39:01.316Z,21.65
2022-07-27T11:40:03.321Z,21.61
2022-07-27T11:41:15.083Z,21.48
2022-07-27T11:42:08.369Z,21.43
2022-07-27T11:43:02.252Z,21.50
2022-07-27T11:44:01.259Z,21.35
2022-07-27T11:45:01.226Z,21.33
2022-07-27T11:46:01.264Z,21.26
2022-07-27T11:47:02.200Z,21.24
2022-07-27T11:48:01.199Z,21.18
2022-07-27T11:49:09.544Z,21.17
2022-07-27T11:50:02.325Z,21.14
2022-07-27T11:51:01.162Z,21.14
2022-07-27T11:52:01.145Z,21.10
2022-07-27T11:53:01.939Z,21.08
2022-07-27T11:54:01.152Z,21.08
2022-07-27T11:55:01.122Z,21.05
2022-07-27T11:56:01.103Z,21.10
2022-07-27T11:57:01.099Z,21.10
2022-07-27T11:58:01.083Z,21.10
2022-07-27T11:59:01.673Z,21.18
2022-07-27T12:00:01.062Z,21.20
2022-07-27T12:01:01.049Z,21.24
2022-07-27T12:02:01.154Z,21.32
2022-07-27T12:03:01.023Z,21.39
2022-07-27T12:04:01.058Z,21.45
2022-07-27T12:05:03.152Z,21.47
2022-07-27T12:06:00.995Z,21.43
2022-07-27T12:07:00.989Z,21.50
2022-07-27T12:08:00.968Z,21.45
2022-07-27T12:09:00.958Z,21.47
2022-07-27T12:10:00.970Z,21.35
2022-07-27T12:11:00.941Z,21.36
2022-07-27T12:12:00.935Z,21.32
2022-07-27T12:13:00.918Z,21.39
2022-07-27T12:14:00.905Z,21.24
2022-07-27T12:15:00.905Z,21.35
2022-07-27T12:16:00.883Z,21.51
2022-07-27T12:17:00.954Z,21.52
2022-07-27T12:18:00.870Z,21.54
2022-07-27T12:19:00.849Z,21.58
2022-07-27T12:20:00.856Z,21.69
2022-07-27T12:21:00.833Z,21.70
2022-07-27T12:22:00.814Z,21.67
2022-07-27T12:23:00.804Z,21.74
2022-07-27T12:24:00.786Z,21.77
2022-07-27T12:25:00.804Z,21.81
2022-07-27T12:26:00.766Z,21.99
2022-07-27T12:27:05.983Z,21.96
2022-07-27T12:28:01.746Z,21.99
2022-07-27T12:29:00.747Z,21.93
2022-07-27T12:30:00.742Z,21.95
2022-07-27T12:31:00.812Z,21.89
2022-07-27T12:32:00.706Z,21.82
2022-07-27T12:33:00.704Z,21.77
2022-07-27T12:34:06.203Z,21.79
2022-07-27T12:35:01.678Z,21.76
2022-07-27T12:36:00.668Z,21.73
2022-07-27T12:37:00.651Z,21.76
2022-07-27T12:38:00.655Z,21.84
2022-07-27T12:39:00.622Z,21.77
2022-07-27T12:40:00.630Z,21.92
2022-07-27T12:41:01.432Z,21.93
2022-07-27T12:42:00.580Z,21.89
2022-07-27T12:43:00.588Z,21.92
2022-07-27T12:44:00.566Z,21.95
2022-07-27T12:45:00.586Z,22.01
2022-07-27T12:46:00.679Z,22.07
2022-07-27T12:47:00.536Z,22.10
2022-07-27T12:48:00.534Z,22.26
2022-07-27T12:49:00.568Z,22.20
2022-07-27T12:50:00.523Z,22.23
2022-07-27T12:51:00.488Z,22.26
2022-07-27T12:52:00.475Z,22.28
2022-07-27T12:53:00.466Z,22.29
2022-07-27T12:54:00.454Z,22.23